sensor_id;sensor_type;location;lat;lon;timestamp;temperature;humidity
16118;DHT22;8163;50.118;5.342;2023-04-03T00:01:34;3.70;99.90
16118;DHT22;8163;50.118;5.342;2023-04-03T00:04:04;3.70;99.90
16118;DHT22;8163;50.118;5.342;2023-04-03T00:06:31;3.60;99.90
16118;DHT22;8163;50.118;5.342;2023-04-03T00:08:59;3.60;99.90
16118;DHT22;8163;50.118;5.342;2023-04-03T00:11:26;3.60;99.90
16118;DHT22;8163;50.118;5.342;2023-04-03T00:13:53;3.60;99.90
16118;DHT22;8163;50.118;5.342;2023-04-03T00:16:20;3.50;99.90
16118;DHT22;8163;50.118;5.342;2023-04-03T00:18:47;3.50;99.90
16118;DHT22;8163;50.118;5.342;2023-04-03T00:21:14;3.50;99.90
16118;DHT22;8163;50.118;5.342;2023-04-03T00:23:42;3.50;99.90
16118;DHT22;8163;50.118;5.342;2023-04-03T00:26:10;3.50;99.90
16118;DHT22;8163;50.118;5.342;2023-04-03T00:28:37;3.40;99.90
16118;DHT22;8163;50.118;5.342;2023-04-03T00:31:04;3.40;99.90
16118;DHT22;8163;50.118;5.342;2023-04-03T00:33:31;3.30;99.90
16118;DHT22;8163;50.118;5.342;2023-04-03T00:35:58;3.30;99.90
16118;DHT22;8163;50.118;5.342;2023-04-03T00:38:25;3.30;99.90
16118;DHT22;8163;50.118;5.342;2023-04-03T00:40:52;3.30;99.90
16118;DHT22;8163;50.118;5.342;2023-04-03T00:43:22;3.30;99.90
16118;DHT22;8163;50.118;5.342;2023-04-03T00:45:50;3.30;99.90
16118;DHT22;8163;50.118;5.342;2023-04-03T00:48:20;3.30;99.90
16118;DHT22;8163;50.118;5.342;2023-04-03T00:50:48;3.30;99.90
16118;DHT22;8163;50.118;5.342;2023-04-03T00:53:19;3.30;99.90
16118;DHT22;8163;50.118;5.342;2023-04-03T00:55:48;3.30;99.90
16118;DHT22;8163;50.118;5.342;2023-04-03T00:58:18;3.30;99.90
16118;DHT22;8163;50.118;5.342;2023-04-03T01:00:50;3.30;99.90
16118;DHT22;8163;50.118;5.342;2023-04-03T01:03:23;3.30;99.90
16118;DHT22;8163;50.118;5.342;2023-04-03T01:05:50;3.20;99.90
16118;DHT22;8163;50.118;5.342;2023-04-03T01:08:18;3.20;99.90
16118;DHT22;8163;50.118;5.342;2023-04-03T01:10:45;3.10;99.90
16118;DHT22;8163;50.118;5.342;2023-04-03T01:13:22;3.00;99.90
16118;DHT22;8163;50.118;5.342;2023-04-03T01:15:52;3.00;99.90
16118;DHT22;8163;50.118;5.342;2023-04-03T01:18:20;2.90;99.90
16118;DHT22;8163;50.118;5.342;2023-04-03T01:21:06;2.90;99.90
16118;DHT22;8163;50.118;5.342;2023-04-03T01:23:52;2.80;99.90
16118;DHT22;8163;50.118;5.342;2023-04-03T01:26:23;2.80;99.90
16118;DHT22;8163;50.118;5.342;2023-04-03T01:28:53;2.70;99.90
16118;DHT22;8163;50.118;5.342;2023-04-03T01:31:24;2.70;99.90
16118;DHT22;8163;50.118;5.342;2023-04-03T01:33:53;2.70;99.90
16118;DHT22;8163;50.118;5.342;2023-04-03T01:36:23;2.60;99.90
16118;DHT22;8163;50.118;5.342;2023-04-03T01:38:51;2.60;99.90
16118;DHT22;8163;50.118;5.342;2023-04-03T01:41:18;2.60;99.90
16118;DHT22;8163;50.118;5.342;2023-04-03T01:43:46;2.50;99.90
16118;DHT22;8163;50.118;5.342;2023-04-03T01:46:13;2.50;99.90
16118;DHT22;8163;50.118;5.342;2023-04-03T01:48:42;2.40;99.90
16118;DHT22;8163;50.118;5.342;2023-04-03T01:51:10;2.50;99.90
16118;DHT22;8163;50.118;5.342;2023-04-03T01:53:37;2.40;99.90
16118;DHT22;8163;50.118;5.342;2023-04-03T01:56:05;2.40;99.90
16118;DHT22;8163;50.118;5.342;2023-04-03T01:58:32;2.40;99.90
16118;DHT22;8163;50.118;5.342;2023-04-03T02:00:59;2.40;99.90
16118;DHT22;8163;50.118;5.342;2023-04-03T02:03:27;2.30;99.90
16118;DHT22;8163;50.118;5.342;2023-04-03T02:05:54;2.30;99.90
16118;DHT22;8163;50.118;5.342;2023-04-03T02:08:22;2.20;99.90
16118;DHT22;8163;50.118;5.342;2023-04-03T02:10:50;2.20;99.90
16118;DHT22;8163;50.118;5.342;2023-04-03T02:13:18;2.20;99.90
16118;DHT22;8163;50.118;5.342;2023-04-03T02:15:45;2.20;99.90
16118;DHT22;8163;50.118;5.342;2023-04-03T02:18:14;2.10;99.90
16118;DHT22;8163;50.118;5.342;2023-04-03T02:20:42;2.10;99.90
16118;DHT22;8163;50.118;5.342;2023-04-03T02:23:09;2.10;99.90
16118;DHT22;8163;50.118;5.342;2023-04-03T02:25:37;2.00;99.90
16118;DHT22;8163;50.118;5.342;2023-04-03T02:28:05;2.00;99.90
16118;DHT22;8163;50.118;5.342;2023-04-03T02:30:32;2.00;99.90
16118;DHT22;8163;50.118;5.342;2023-04-03T02:32:59;1.90;99.90
16118;DHT22;8163;50.118;5.342;2023-04-03T02:35:26;1.90;99.90
16118;DHT22;8163;50.118;5.342;2023-04-03T02:37:53;1.90;99.90
16118;DHT22;8163;50.118;5.342;2023-04-03T02:40:20;1.90;99.90
16118;DHT22;8163;50.118;5.342;2023-04-03T02:42:48;1.80;99.90
16118;DHT22;8163;50.118;5.342;2023-04-03T02:45:16;1.80;99.90
16118;DHT22;8163;50.118;5.342;2023-04-03T02:47:43;1.70;99.90
16118;DHT22;8163;50.118;5.342;2023-04-03T02:50:10;1.70;99.90
16118;DHT22;8163;50.118;5.342;2023-04-03T02:52:37;1.70;99.90
16118;DHT22;8163;50.118;5.342;2023-04-03T02:55:05;1.70;99.90
16118;DHT22;8163;50.118;5.342;2023-04-03T02:57:32;1.60;99.90
16118;DHT22;8163;50.118;5.342;2023-04-03T03:00:00;1.60;99.90
16118;DHT22;8163;50.118;5.342;2023-04-03T03:02:27;1.60;99.90
16118;DHT22;8163;50.118;5.342;2023-04-03T03:04:54;1.50;99.90
16118;DHT22;8163;50.118;5.342;2023-04-03T03:07:21;1.50;99.90
16118;DHT22;8163;50.118;5.342;2023-04-03T03:09:48;1.50;99.90
16118;DHT22;8163;50.118;5.342;2023-04-03T03:12:15;1.50;99.90
16118;DHT22;8163;50.118;5.342;2023-04-03T03:14:46;1.40;99.90
16118;DHT22;8163;50.118;5.342;2023-04-03T03:17:15;1.40;99.90
16118;DHT22;8163;50.118;5.342;2023-04-03T03:19:42;1.30;99.90
16118;DHT22;8163;50.118;5.342;2023-04-03T03:22:09;1.30;99.90
16118;DHT22;8163;50.118;5.342;2023-04-03T03:24:36;1.30;99.90
16118;DHT22;8163;50.118;5.342;2023-04-03T03:27:03;1.30;99.90
16118;DHT22;8163;50.118;5.342;2023-04-03T03:29:30;1.20;99.90
16118;DHT22;8163;50.118;5.342;2023-04-03T03:31:57;1.30;99.90
16118;DHT22;8163;50.118;5.342;2023-04-03T03:34:25;1.20;99.90
16118;DHT22;8163;50.118;5.342;2023-04-03T03:36:52;1.20;99.90
16118;DHT22;8163;50.118;5.342;2023-04-03T03:39:19;1.20;99.90
16118;DHT22;8163;50.118;5.342;2023-04-03T03:41:46;1.20;99.90
16118;DHT22;8163;50.118;5.342;2023-04-03T03:44:15;1.20;99.90
16118;DHT22;8163;50.118;5.342;2023-04-03T03:46:42;1.10;99.90
16118;DHT22;8163;50.118;5.342;2023-04-03T03:49:10;1.10;99.90
16118;DHT22;8163;50.118;5.342;2023-04-03T03:51:39;1.10;99.90
16118;DHT22;8163;50.118;5.342;2023-04-03T03:54:07;1.10;99.90
16118;DHT22;8163;50.118;5.342;2023-04-03T03:56:34;1.10;99.90
16118;DHT22;8163;50.118;5.342;2023-04-03T03:59:01;1.00;99.90
16118;DHT22;8163;50.118;5.342;2023-04-03T04:01:28;1.00;99.90
16118;DHT22;8163;50.118;5.342;2023-04-03T04:03:55;1.00;99.90
16118;DHT22;8163;50.118;5.342;2023-04-03T04:06:22;1.00;99.90
16118;DHT22;8163;50.118;5.342;2023-04-03T04:08:50;0.90;99.90
16118;DHT22;8163;50.118;5.342;2023-04-03T04:11:17;0.90;99.90
16118;DHT22;8163;50.118;5.342;2023-04-03T04:13:45;0.90;99.90
16118;DHT22;8163;50.118;5.342;2023-04-03T04:16:12;0.90;99.90
16118;DHT22;8163;50.118;5.342;2023-04-03T04:18:39;0.90;99.90
16118;DHT22;8163;50.118;5.342;2023-04-03T04:21:06;0.90;99.90
16118;DHT22;8163;50.118;5.342;2023-04-03T04:23:33;0.90;99.90
16118;DHT22;8163;50.118;5.342;2023-04-03T04:26:01;0.80;99.90
16118;DHT22;8163;50.118;5.342;2023-04-03T04:28:28;0.80;99.90
16118;DHT22;8163;50.118;5.342;2023-04-03T04:30:55;0.80;99.90
16118;DHT22;8163;50.118;5.342;2023-04-03T04:33:22;0.70;99.90
16118;DHT22;8163;50.118;5.342;2023-04-03T04:35:49;0.70;99.90
16118;DHT22;8163;50.118;5.342;2023-04-03T04:38:17;0.70;99.90
16118;DHT22;8163;50.118;5.342;2023-04-03T04:40:44;0.70;99.90
16118;DHT22;8163;50.118;5.342;2023-04-03T04:43:12;0.70;99.90
16118;DHT22;8163;50.118;5.342;2023-04-03T04:45:41;0.70;99.90
16118;DHT22;8163;50.118;5.342;2023-04-03T04:48:08;0.70;99.90
16118;DHT22;8163;50.118;5.342;2023-04-03T04:50:35;0.70;99.90
16118;DHT22;8163;50.118;5.342;2023-04-03T04:53:02;0.70;99.90
16118;DHT22;8163;50.118;5.342;2023-04-03T04:55:29;0.60;99.90
16118;DHT22;8163;50.118;5.342;2023-04-03T04:57:56;0.60;99.90
16118;DHT22;8163;50.118;5.342;2023-04-03T05:00:25;0.60;99.90
16118;DHT22;8163;50.118;5.342;2023-04-03T05:02:52;0.60;99.90
16118;DHT22;8163;50.118;5.342;2023-04-03T05:05:18;0.60;99.90
16118;DHT22;8163;50.118;5.342;2023-04-03T05:07:45;0.60;99.90
16118;DHT22;8163;50.118;5.342;2023-04-03T05:10:12;0.60;99.90
16118;DHT22;8163;50.118;5.342;2023-04-03T05:12:41;0.60;99.90
16118;DHT22;8163;50.118;5.342;2023-04-03T05:15:09;0.60;99.90
16118;DHT22;8163;50.118;5.342;2023-04-03T05:17:38;0.60;99.90
16118;DHT22;8163;50.118;5.342;2023-04-03T05:20:06;0.70;99.90
16118;DHT22;8163;50.118;5.342;2023-04-03T05:22:34;0.70;99.90
16118;DHT22;8163;50.118;5.342;2023-04-03T05:25:01;0.70;99.90
16118;DHT22;8163;50.118;5.342;2023-04-03T05:27:28;0.70;99.90
16118;DHT22;8163;50.118;5.342;2023-04-03T05:29:55;0.70;99.90
16118;DHT22;8163;50.118;5.342;2023-04-03T05:32:24;0.80;99.90
16118;DHT22;8163;50.118;5.342;2023-04-03T05:34:54;0.80;99.90
16118;DHT22;8163;50.118;5.342;2023-04-03T05:37:21;0.90;99.90
16118;DHT22;8163;50.118;5.342;2023-04-03T05:39:48;1.40;99.90
16118;DHT22;8163;50.118;5.342;2023-04-03T05:42:17;3.20;99.90
16118;DHT22;8163;50.118;5.342;2023-04-03T05:44:44;4.70;99.90
16118;DHT22;8163;50.118;5.342;2023-04-03T05:47:12;5.90;99.90
16118;DHT22;8163;50.118;5.342;2023-04-03T05:49:39;6.90;99.90
16118;DHT22;8163;50.118;5.342;2023-04-03T05:52:13;7.80;99.90
16118;DHT22;8163;50.118;5.342;2023-04-03T05:54:43;8.50;99.90
16118;DHT22;8163;50.118;5.342;2023-04-03T05:57:12;9.20;99.90
16118;DHT22;8163;50.118;5.342;2023-04-03T05:59:39;9.70;99.90
16118;DHT22;8163;50.118;5.342;2023-04-03T06:02:06;10.30;99.90
16118;DHT22;8163;50.118;5.342;2023-04-03T06:04:33;10.80;99.90
16118;DHT22;8163;50.118;5.342;2023-04-03T06:07:00;11.30;99.90
16118;DHT22;8163;50.118;5.342;2023-04-03T06:09:30;11.70;99.90
16118;DHT22;8163;50.118;5.342;2023-04-03T06:11:57;12.20;99.90
16118;DHT22;8163;50.118;5.342;2023-04-03T06:14:24;12.60;99.90
16118;DHT22;8163;50.118;5.342;2023-04-03T06:16:54;12.90;99.90
16118;DHT22;8163;50.118;5.342;2023-04-03T06:19:22;13.30;99.90
16118;DHT22;8163;50.118;5.342;2023-04-03T06:21:52;13.60;99.90
16118;DHT22;8163;50.118;5.342;2023-04-03T06:24:19;14.10;99.90
16118;DHT22;8163;50.118;5.342;2023-04-03T06:26:48;14.60;99.90
16118;DHT22;8163;50.118;5.342;2023-04-03T06:29:17;15.00;99.90
16118;DHT22;8163;50.118;5.342;2023-04-03T06:31:44;15.30;99.90
16118;DHT22;8163;50.118;5.342;2023-04-03T06:34:11;15.50;99.90
16118;DHT22;8163;50.118;5.342;2023-04-03T06:36:39;15.90;99.90
16118;DHT22;8163;50.118;5.342;2023-04-03T06:39:06;16.30;99.90
16118;DHT22;8163;50.118;5.342;2023-04-03T06:41:33;16.50;99.90
16118;DHT22;8163;50.118;5.342;2023-04-03T06:44:02;16.70;99.90
16118;DHT22;8163;50.118;5.342;2023-04-03T06:46:29;17.00;99.90
16118;DHT22;8163;50.118;5.342;2023-04-03T06:48:56;17.20;99.90
16118;DHT22;8163;50.118;5.342;2023-04-03T06:51:24;17.60;99.90
16118;DHT22;8163;50.118;5.342;2023-04-03T06:53:53;17.90;99.90
16118;DHT22;8163;50.118;5.342;2023-04-03T06:56:21;18.10;99.90
16118;DHT22;8163;50.118;5.342;2023-04-03T06:58:48;18.30;99.90
16118;DHT22;8163;50.118;5.342;2023-04-03T07:01:18;18.40;99.90
16118;DHT22;8163;50.118;5.342;2023-04-03T07:03:46;18.60;99.90
16118;DHT22;8163;50.118;5.342;2023-04-03T07:06:15;18.90;99.90
16118;DHT22;8163;50.118;5.342;2023-04-03T07:08:43;19.10;99.90
16118;DHT22;8163;50.118;5.342;2023-04-03T07:11:10;19.50;99.90
16118;DHT22;8163;50.118;5.342;2023-04-03T07:13:38;19.70;99.90
16118;DHT22;8163;50.118;5.342;2023-04-03T07:16:06;19.90;99.90
16118;DHT22;8163;50.118;5.342;2023-04-03T07:18:35;20.10;99.90
16118;DHT22;8163;50.118;5.342;2023-04-03T07:21:03;20.30;99.90
16118;DHT22;8163;50.118;5.342;2023-04-03T07:23:30;20.40;99.90
16118;DHT22;8163;50.118;5.342;2023-04-03T07:25:57;20.50;99.90
16118;DHT22;8163;50.118;5.342;2023-04-03T07:28:24;20.50;99.90
16118;DHT22;8163;50.118;5.342;2023-04-03T07:30:53;20.70;99.90
16118;DHT22;8163;50.118;5.342;2023-04-03T07:33:22;21.00;99.90
16118;DHT22;8163;50.118;5.342;2023-04-03T07:35:51;21.00;99.90
16118;DHT22;8163;50.118;5.342;2023-04-03T07:38:18;21.00;99.90
16118;DHT22;8163;50.118;5.342;2023-04-03T07:40:49;21.20;99.90
16118;DHT22;8163;50.118;5.342;2023-04-03T07:43:17;21.20;99.90
16118;DHT22;8163;50.118;5.342;2023-04-03T07:45:44;21.40;99.90
16118;DHT22;8163;50.118;5.342;2023-04-03T07:48:13;21.40;99.90
16118;DHT22;8163;50.118;5.342;2023-04-03T07:50:40;21.50;99.80
16118;DHT22;8163;50.118;5.342;2023-04-03T07:53:09;21.40;99.90
16118;DHT22;8163;50.118;5.342;2023-04-03T07:55:37;21.30;99.50
16118;DHT22;8163;50.118;5.342;2023-04-03T07:58:09;21.40;99.90
16118;DHT22;8163;50.118;5.342;2023-04-03T08:00:36;21.40;99.60
16118;DHT22;8163;50.118;5.342;2023-04-03T08:03:04;21.30;98.10
16118;DHT22;8163;50.118;5.342;2023-04-03T08:05:31;21.20;98.00
16118;DHT22;8163;50.118;5.342;2023-04-03T08:08:02;21.40;98.60
16118;DHT22;8163;50.118;5.342;2023-04-03T08:10:37;21.30;96.50
16118;DHT22;8163;50.118;5.342;2023-04-03T08:13:04;21.20;96.00
16118;DHT22;8163;50.118;5.342;2023-04-03T08:15:32;21.20;97.00
16118;DHT22;8163;50.118;5.342;2023-04-03T08:18:00;21.10;95.10
16118;DHT22;8163;50.118;5.342;2023-04-03T08:20:27;20.70;93.60
16118;DHT22;8163;50.118;5.342;2023-04-03T08:22:54;20.90;94.70
16118;DHT22;8163;50.118;5.342;2023-04-03T08:25:21;20.70;93.80
16118;DHT22;8163;50.118;5.342;2023-04-03T08:27:50;20.60;94.20
16118;DHT22;8163;50.118;5.342;2023-04-03T08:30:17;20.00;92.50
16118;DHT22;8163;50.118;5.342;2023-04-03T08:32:44;19.10;92.50
16118;DHT22;8163;50.118;5.342;2023-04-03T08:35:11;19.50;93.60
16118;DHT22;8163;50.118;5.342;2023-04-03T08:37:39;18.20;92.30
16118;DHT22;8163;50.118;5.342;2023-04-03T08:40:10;17.30;91.30
16118;DHT22;8163;50.118;5.342;2023-04-03T08:42:46;16.30;90.40
16118;DHT22;8163;50.118;5.342;2023-04-03T08:45:22;17.40;91.70
16118;DHT22;8163;50.118;5.342;2023-04-03T08:47:56;16.90;90.90
16118;DHT22;8163;50.118;5.342;2023-04-03T08:50:29;17.40;90.30
16118;DHT22;8163;50.118;5.342;2023-04-03T08:52:59;17.40;90.50
16118;DHT22;8163;50.118;5.342;2023-04-03T08:55:27;17.10;90.00
16118;DHT22;8163;50.118;5.342;2023-04-03T08:57:59;17.50;91.50
16118;DHT22;8163;50.118;5.342;2023-04-03T09:00:34;18.20;92.00
16118;DHT22;8163;50.118;5.342;2023-04-03T09:03:04;18.30;91.20
16118;DHT22;8163;50.118;5.342;2023-04-03T09:05:39;17.70;90.10
16118;DHT22;8163;50.118;5.342;2023-04-03T09:08:18;17.70;83.40
16118;DHT22;8163;50.118;5.342;2023-04-03T09:10:49;18.00;85.70
16118;DHT22;8163;50.118;5.342;2023-04-03T09:13:24;18.20;82.80
16118;DHT22;8163;50.118;5.342;2023-04-03T09:15:55;18.30;81.60
16118;DHT22;8163;50.118;5.342;2023-04-03T09:18:26;18.50;83.50
16118;DHT22;8163;50.118;5.342;2023-04-03T09:21:01;19.00;83.40
16118;DHT22;8163;50.118;5.342;2023-04-03T09:23:35;19.20;81.90
16118;DHT22;8163;50.118;5.342;2023-04-03T09:26:11;19.50;80.60
16118;DHT22;8163;50.118;5.342;2023-04-03T09:28:41;19.40;79.20
16118;DHT22;8163;50.118;5.342;2023-04-03T09:31:20;19.40;79.20
16118;DHT22;8163;50.118;5.342;2023-04-03T09:33:49;18.90;75.20
16118;DHT22;8163;50.118;5.342;2023-04-03T09:36:38;18.80;77.50
16118;DHT22;8163;50.118;5.342;2023-04-03T09:39:11;19.00;74.80
16118;DHT22;8163;50.118;5.342;2023-04-03T09:41:39;19.30;76.10
16118;DHT22;8163;50.118;5.342;2023-04-03T09:44:21;18.40;73.10
16118;DHT22;8163;50.118;5.342;2023-04-03T09:46:50;18.90;73.00
16118;DHT22;8163;50.118;5.342;2023-04-03T09:49:18;19.20;75.50
16118;DHT22;8163;50.118;5.342;2023-04-03T09:51:46;19.30;72.50
16118;DHT22;8163;50.118;5.342;2023-04-03T09:54:34;19.30;69.60
16118;DHT22;8163;50.118;5.342;2023-04-03T09:57:10;19.20;68.70
16118;DHT22;8163;50.118;5.342;2023-04-03T09:59:46;19.70;70.40
16118;DHT22;8163;50.118;5.342;2023-04-03T10:02:36;20.00;69.50
16118;DHT22;8163;50.118;5.342;2023-04-03T10:05:23;20.00;69.00
16118;DHT22;8163;50.118;5.342;2023-04-03T10:07:51;20.60;71.70
16118;DHT22;8163;50.118;5.342;2023-04-03T10:10:20;20.90;69.70
16118;DHT22;8163;50.118;5.342;2023-04-03T10:13:04;20.40;66.50
16118;DHT22;8163;50.118;5.342;2023-04-03T10:15:36;20.70;64.60
16118;DHT22;8163;50.118;5.342;2023-04-03T10:18:15;20.90;66.10
16118;DHT22;8163;50.118;5.342;2023-04-03T10:20:49;20.80;63.20
16118;DHT22;8163;50.118;5.342;2023-04-03T10:23:21;20.70;65.10
16118;DHT22;8163;50.118;5.342;2023-04-03T10:25:59;20.50;61.00
16118;DHT22;8163;50.118;5.342;2023-04-03T10:28:33;20.60;61.70
16118;DHT22;8163;50.118;5.342;2023-04-03T10:31:06;20.90;62.10
16118;DHT22;8163;50.118;5.342;2023-04-03T10:33:52;21.10;60.80
16118;DHT22;8163;50.118;5.342;2023-04-03T10:36:32;21.20;59.40
16118;DHT22;8163;50.118;5.342;2023-04-03T10:39:08;21.10;58.70
16118;DHT22;8163;50.118;5.342;2023-04-03T10:41:47;21.00;57.10
16118;DHT22;8163;50.118;5.342;2023-04-03T10:44:24;21.10;57.90
16118;DHT22;8163;50.118;5.342;2023-04-03T10:47:02;21.60;59.70
16118;DHT22;8163;50.118;5.342;2023-04-03T10:49:43;21.80;59.10
16118;DHT22;8163;50.118;5.342;2023-04-03T10:52:20;21.90;58.20
16118;DHT22;8163;50.118;5.342;2023-04-03T10:54:57;21.90;57.80
16118;DHT22;8163;50.118;5.342;2023-04-03T10:57:29;21.60;54.70
16118;DHT22;8163;50.118;5.342;2023-04-03T10:59:59;21.20;55.20
16118;DHT22;8163;50.118;5.342;2023-04-03T11:02:31;21.40;55.90
16118;DHT22;8163;50.118;5.342;2023-04-03T11:05:03;21.70;56.10
16118;DHT22;8163;50.118;5.342;2023-04-03T11:07:38;21.80;54.80
16118;DHT22;8163;50.118;5.342;2023-04-03T11:10:10;21.70;54.80
16118;DHT22;8163;50.118;5.342;2023-04-03T11:12:42;21.90;54.70
16118;DHT22;8163;50.118;5.342;2023-04-03T11:15:14;21.90;54.30
16118;DHT22;8163;50.118;5.342;2023-04-03T11:17:45;22.00;54.80
16118;DHT22;8163;50.118;5.342;2023-04-03T11:20:19;22.00;53.80
16118;DHT22;8163;50.118;5.342;2023-04-03T11:22:50;22.10;53.10
16118;DHT22;8163;50.118;5.342;2023-04-03T11:25:21;22.00;52.20
16118;DHT22;8163;50.118;5.342;2023-04-03T11:27:54;21.80;52.20
16118;DHT22;8163;50.118;5.342;2023-04-03T11:30:27;21.90;52.80
16118;DHT22;8163;50.118;5.342;2023-04-03T11:33:18;21.70;51.00
16118;DHT22;8163;50.118;5.342;2023-04-03T11:35:52;21.70;52.00
16118;DHT22;8163;50.118;5.342;2023-04-03T11:38:24;21.90;52.40
16118;DHT22;8163;50.118;5.342;2023-04-03T11:40:54;22.10;52.00
16118;DHT22;8163;50.118;5.342;2023-04-03T11:43:25;22.10;50.50
16118;DHT22;8163;50.118;5.342;2023-04-03T11:45:54;22.20;51.00
16118;DHT22;8163;50.118;5.342;2023-04-03T11:48:44;21.70;47.70
16118;DHT22;8163;50.118;5.342;2023-04-03T11:54:44;21.30;48.50
16118;DHT22;8163;50.118;5.342;2023-04-03T12:00:48;21.50;47.50
16118;DHT22;8163;50.118;5.342;2023-04-03T12:07:00;21.30;48.20
16118;DHT22;8163;50.118;5.342;2023-04-03T12:09:52;21.70;49.30
16118;DHT22;8163;50.118;5.342;2023-04-03T12:12:38;21.90;49.40
16118;DHT22;8163;50.118;5.342;2023-04-03T12:15:25;21.90;48.40
16118;DHT22;8163;50.118;5.342;2023-04-03T12:17:53;21.60;47.30
16118;DHT22;8163;50.118;5.342;2023-04-03T12:20:57;21.50;48.40
16118;DHT22;8163;50.118;5.342;2023-04-03T12:23:30;21.30;47.00
16118;DHT22;8163;50.118;5.342;2023-04-03T12:26:04;21.40;47.50
16118;DHT22;8163;50.118;5.342;2023-04-03T12:28:39;21.40;47.00
16118;DHT22;8163;50.118;5.342;2023-04-03T12:31:10;20.90;45.30
16118;DHT22;8163;50.118;5.342;2023-04-03T12:33:51;20.70;46.70
16118;DHT22;8163;50.118;5.342;2023-04-03T12:36:32;20.90;47.00
16118;DHT22;8163;50.118;5.342;2023-04-03T12:41:53;21.10;47.10
16118;DHT22;8163;50.118;5.342;2023-04-03T12:44:43;20.90;46.60
16118;DHT22;8163;50.118;5.342;2023-04-03T12:47:28;20.90;47.60
16118;DHT22;8163;50.118;5.342;2023-04-03T12:49:55;20.70;45.90
16118;DHT22;8163;50.118;5.342;2023-04-03T12:52:32;20.30;45.90
16118;DHT22;8163;50.118;5.342;2023-04-03T12:55:00;20.20;46.40
16118;DHT22;8163;50.118;5.342;2023-04-03T12:57:30;20.20;47.00
16118;DHT22;8163;50.118;5.342;2023-04-03T12:59:59;20.20;47.30
16118;DHT22;8163;50.118;5.342;2023-04-03T13:02:28;20.20;47.30
16118;DHT22;8163;50.118;5.342;2023-04-03T13:04:57;20.10;46.70
16118;DHT22;8163;50.118;5.342;2023-04-03T13:07:29;19.70;46.00
16118;DHT22;8163;50.118;5.342;2023-04-03T13:10:14;19.40;45.60
16118;DHT22;8163;50.118;5.342;2023-04-03T13:12:48;19.30;46.00
16118;DHT22;8163;50.118;5.342;2023-04-03T13:15:18;19.10;46.30
16118;DHT22;8163;50.118;5.342;2023-04-03T13:17:46;19.00;46.60
16118;DHT22;8163;50.118;5.342;2023-04-03T13:20:20;19.10;46.80
16118;DHT22;8163;50.118;5.342;2023-04-03T13:22:51;19.10;46.50
16118;DHT22;8163;50.118;5.342;2023-04-03T13:25:21;18.60;45.30
16118;DHT22;8163;50.118;5.342;2023-04-03T13:27:49;18.40;46.00
16118;DHT22;8163;50.118;5.342;2023-04-03T13:30:25;18.50;46.80
16118;DHT22;8163;50.118;5.342;2023-04-03T13:32:53;18.50;46.70
16118;DHT22;8163;50.118;5.342;2023-04-03T13:35:26;18.30;46.30
16118;DHT22;8163;50.118;5.342;2023-04-03T13:37:55;18.00;45.60
16118;DHT22;8163;50.118;5.342;2023-04-03T13:40:22;17.80;45.60
16118;DHT22;8163;50.118;5.342;2023-04-03T13:42:59;17.50;45.40
16118;DHT22;8163;50.118;5.342;2023-04-03T13:45:29;17.60;46.00
16118;DHT22;8163;50.118;5.342;2023-04-03T13:48:09;17.50;46.00
16118;DHT22;8163;50.118;5.342;2023-04-03T13:50:56;17.40;46.00
16118;DHT22;8163;50.118;5.342;2023-04-03T13:53:23;17.00;45.20
16118;DHT22;8163;50.118;5.342;2023-04-03T13:56:00;16.30;45.20
16118;DHT22;8163;50.118;5.342;2023-04-03T14:36:42;15.50;45.60
16118;DHT22;8163;50.118;5.342;2023-04-03T14:39:15;15.30;46.00
16118;DHT22;8163;50.118;5.342;2023-04-03T14:41:44;15.20;46.70
16118;DHT22;8163;50.118;5.342;2023-04-03T14:44:12;14.60;46.60
16118;DHT22;8163;50.118;5.342;2023-04-03T14:46:42;14.30;46.70
16118;DHT22;8163;50.118;5.342;2023-04-03T14:49:14;14.10;46.90
16118;DHT22;8163;50.118;5.342;2023-04-03T14:51:43;14.00;47.40
16118;DHT22;8163;50.118;5.342;2023-04-03T14:54:13;13.90;47.70
16118;DHT22;8163;50.118;5.342;2023-04-03T14:56:40;13.90;47.90
16118;DHT22;8163;50.118;5.342;2023-04-03T14:59:09;13.90;48.20
16118;DHT22;8163;50.118;5.342;2023-04-03T15:01:37;13.80;48.50
16118;DHT22;8163;50.118;5.342;2023-04-03T15:04:09;13.60;48.50
16118;DHT22;8163;50.118;5.342;2023-04-03T15:06:37;13.40;48.70
16118;DHT22;8163;50.118;5.342;2023-04-03T15:09:05;13.40;48.70
16118;DHT22;8163;50.118;5.342;2023-04-03T15:11:35;13.40;48.90
16118;DHT22;8163;50.118;5.342;2023-04-03T15:14:02;13.30;48.90
16118;DHT22;8163;50.118;5.342;2023-04-03T15:16:29;13.20;48.90
16118;DHT22;8163;50.118;5.342;2023-04-03T15:18:56;13.10;49.10
16118;DHT22;8163;50.118;5.342;2023-04-03T15:21:23;13.00;49.10
16118;DHT22;8163;50.118;5.342;2023-04-03T15:23:51;12.80;49.30
16118;DHT22;8163;50.118;5.342;2023-04-03T15:26:19;12.50;49.60
16118;DHT22;8163;50.118;5.342;2023-04-03T15:28:47;12.30;49.80
16118;DHT22;8163;50.118;5.342;2023-04-03T15:31:15;12.40;49.90
16118;DHT22;8163;50.118;5.342;2023-04-03T15:33:42;12.50;50.30
16118;DHT22;8163;50.118;5.342;2023-04-03T15:36:10;12.50;50.40
16118;DHT22;8163;50.118;5.342;2023-04-03T15:38:37;12.30;50.10
16118;DHT22;8163;50.118;5.342;2023-04-03T15:41:04;12.20;50.20
16118;DHT22;8163;50.118;5.342;2023-04-03T15:43:33;12.00;50.30
16118;DHT22;8163;50.118;5.342;2023-04-03T15:46:02;12.10;50.50
16118;DHT22;8163;50.118;5.342;2023-04-03T15:48:30;12.00;50.50
16118;DHT22;8163;50.118;5.342;2023-04-03T15:50:57;11.90;50.50
16118;DHT22;8163;50.118;5.342;2023-04-03T15:53:24;12.00;50.80
16118;DHT22;8163;50.118;5.342;2023-04-03T15:55:51;12.00;50.80
16118;DHT22;8163;50.118;5.342;2023-04-03T15:58:18;11.90;51.00
16118;DHT22;8163;50.118;5.342;2023-04-03T16:00:46;11.90;51.20
16118;DHT22;8163;50.118;5.342;2023-04-03T16:03:17;11.90;51.30
16118;DHT22;8163;50.118;5.342;2023-04-03T16:05:46;11.80;51.50
16118;DHT22;8163;50.118;5.342;2023-04-03T16:08:16;11.80;51.60
16118;DHT22;8163;50.118;5.342;2023-04-03T16:10:43;11.70;51.40
16118;DHT22;8163;50.118;5.342;2023-04-03T16:13:13;11.50;51.30
16118;DHT22;8163;50.118;5.342;2023-04-03T16:15:41;11.50;51.50
16118;DHT22;8163;50.118;5.342;2023-04-03T16:18:10;11.30;51.40
16118;DHT22;8163;50.118;5.342;2023-04-03T16:20:39;11.20;51.50
16118;DHT22;8163;50.118;5.342;2023-04-03T16:23:06;11.30;51.60
16118;DHT22;8163;50.118;5.342;2023-04-03T16:25:33;11.30;51.40
16118;DHT22;8163;50.118;5.342;2023-04-03T16:28:00;11.20;51.20
16118;DHT22;8163;50.118;5.342;2023-04-03T16:30:27;11.20;51.20
16118;DHT22;8163;50.118;5.342;2023-04-03T16:32:54;11.10;51.10
16118;DHT22;8163;50.118;5.342;2023-04-03T16:35:23;10.90;51.30
16118;DHT22;8163;50.118;5.342;2023-04-03T16:37:50;10.90;51.30
16118;DHT22;8163;50.118;5.342;2023-04-03T16:40:18;10.80;51.20
16118;DHT22;8163;50.118;5.342;2023-04-03T16:42:45;10.70;51.80
16118;DHT22;8163;50.118;5.342;2023-04-03T16:45:14;10.70;51.20
16118;DHT22;8163;50.118;5.342;2023-04-03T16:47:44;10.60;51.00
16118;DHT22;8163;50.118;5.342;2023-04-03T16:50:11;10.50;51.00
16118;DHT22;8163;50.118;5.342;2023-04-03T16:52:41;10.50;51.00
16118;DHT22;8163;50.118;5.342;2023-04-03T16:55:10;10.40;51.00
16118;DHT22;8163;50.118;5.342;2023-04-03T16:57:37;10.30;51.20
16118;DHT22;8163;50.118;5.342;2023-04-03T17:00:05;10.30;51.20
16118;DHT22;8163;50.118;5.342;2023-04-03T17:02:32;10.20;50.90